Time;durP1;ratioP1;P1;durP2;ratioP2;P2;SDS_P1;SDS_P2;PMS_P1;PMS_P2;Temp;Humidity;BMP_temperature;BMP_pressure;BME280_temperature;BME280_humidity;BME280_pressure;Samples;Min_cycle;Max_cycle;Signal;HPM_P1;HPM_P2
2023/07/30 00:01:54;;;;;;;9.30;4.00;;;27.10;83.20;;;;;;6215506;23;20008;-74
2023/07/30 00:04:20;;;;;;;11.50;3.65;;;27.10;83.60;;;;;;6215759;23;20115;-74
2023/07/30 00:06:46;;;;;;;12.27;4.00;;;27.10;83.50;;;;;;6215331;23;20330;-73
2023/07/30 00:09:12;;;;;;;11.50;4.05;;;27.00;83.60;;;;;;6215207;23;20008;-73
2023/07/30 00:11:38;;;;;;;12.80;3.47;;;27.00;83.70;;;;;;6213556;23;20012;-73
2023/07/30 00:14:04;;;;;;;8.02;3.10;;;27.00;83.60;;;;;;6215325;23;20027;-74
2023/07/30 00:16:30;;;;;;;13.18;3.90;;;27.10;83.70;;;;;;6215517;23;19996;-73
2023/07/30 00:18:56;;;;;;;9.32;3.47;;;27.10;83.70;;;;;;6215535;23;20012;-75
2023/07/30 00:21:22;;;;;;;9.95;3.60;;;27.00;83.10;;;;;;6215263;23;20481;-74
2023/07/30 00:23:48;;;;;;;12.05;3.75;;;27.00;83.30;;;;;;6215260;23;20138;-73
2023/07/30 00:26:14;;;;;;;12.20;3.78;;;27.00;83.60;;;;;;6215189;23;20008;-73
2023/07/30 00:28:40;;;;;;;11.52;3.95;;;27.00;84.50;;;;;;6215467;23;20419;-74
2023/07/30 00:31:06;;;;;;;9.10;3.70;;;27.00;83.80;;;;;;6216707;23;20015;-71
2023/07/30 00:33:31;;;;;;;14.80;3.92;;;27.00;83.90;;;;;;6214694;23;20009;-73
2023/07/30 00:35:57;;;;;;;12.13;3.70;;;26.90;84.20;;;;;;6215265;23;20009;-73
2023/07/30 00:38:23;;;;;;;13.30;3.70;;;26.90;84.00;;;;;;6215678;23;20361;-73
2023/07/30 00:40:49;;;;;;;10.40;4.20;;;26.90;84.00;;;;;;6216292;23;20059;-73
2023/07/30 00:43:15;;;;;;;7.85;3.72;;;26.90;84.00;;;;;;6215562;23;20079;-73
2023/07/30 00:45:43;;;;;;;10.75;4.63;;;26.90;84.10;;;;;;6216693;23;19997;-74
2023/07/30 00:48:10;;;;;;;10.52;4.25;;;26.90;84.30;;;;;;6215496;23;20008;-73
2023/07/30 00:50:38;;;;;;;15.23;6.15;;;26.90;84.10;;;;;;6214923;23;20347;-73
2023/07/30 00:53:04;;;;;;;15.82;6.55;;;26.90;83.90;;;;;;6215067;23;20004;-73
2023/07/30 00:55:30;;;;;;;14.88;6.40;;;26.90;84.10;;;;;;6214959;23;20001;-73
2023/07/30 00:57:57;;;;;;;14.13;6.50;;;26.90;84.10;;;;;;6214298;23;20001;-73
2023/07/30 01:00:24;;;;;;;15.48;6.93;;;26.90;83.70;;;;;;6214831;23;20111;-73
2023/07/30 01:02:51;;;;;;;20.85;8.38;;;27.00;83.80;;;;;;6214560;23;20012;-74
2023/07/30 01:05:17;;;;;;;17.52;8.50;;;27.00;84.00;;;;;;6214824;23;20075;-74
2023/07/30 01:07:43;;;;;;;19.73;8.50;;;26.90;83.70;;;;;;6214436;23;20009;-73
2023/07/30 01:10:09;;;;;;;19.08;8.80;;;26.90;84.10;;;;;;6214755;23;20072;-73
2023/07/30 01:12:35;;;;;;;18.70;9.18;;;26.80;84.30;;;;;;6214975;23;20004;-73
2023/07/30 01:15:02;;;;;;;21.40;8.82;;;26.80;84.60;;;;;;6214581;23;20009;-73
2023/07/30 01:17:28;;;;;;;18.40;9.55;;;26.80;84.70;;;;;;6214786;23;20017;-74
2023/07/30 01:19:57;;;;;;;21.73;9.95;;;26.80;84.70;;;;;;6214985;23;20010;-73
2023/07/30 01:22:23;;;;;;;18.08;9.65;;;26.70;85.40;;;;;;6216057;23;20015;-73
2023/07/30 01:24:49;;;;;;;19.02;9.82;;;26.70;85.10;;;;;;6215468;23;20446;-72
2023/07/30 01:27:24;;;;;;;23.05;9.63;;;26.70;84.90;;;;;;6214637;23;20004;-73
2023/07/30 01:29:54;;;;;;;17.80;10.55;;;26.70;84.70;;;;;;6214391;23;20039;-73
2023/07/30 01:32:25;;;;;;;23.38;11.88;;;26.70;84.60;;;;;;6214169;23;20021;-73
2023/07/30 01:34:54;;;;;;;21.08;10.80;;;26.70;85.00;;;;;;6214800;23;20012;-73
2023/07/30 01:37:21;;;;;;;20.75;11.50;;;26.70;84.60;;;;;;6214567;23;20411;-73
2023/07/30 01:39:48;;;;;;;21.17;11.13;;;26.70;84.60;;;;;;6214290;23;20002;-73
2023/07/30 01:42:14;;;;;;;18.17;10.00;;;26.70;84.80;;;;;;6214348;23;19996;-72
2023/07/30 01:44:40;;;;;;;22.92;11.20;;;26.70;84.70;;;;;;6214647;23;20073;-74
2023/07/30 01:47:06;;;;;;;17.02;9.73;;;26.70;84.50;;;;;;6214565;23;20032;-73
2023/07/30 01:49:31;;;;;;;17.73;9.98;;;26.70;84.70;;;;;;6214412;23;20435;-74
2023/07/30 01:51:57;;;;;;;19.65;9.43;;;26.70;84.60;;;;;;6214486;23;20323;-73
2023/07/30 01:54:23;;;;;;;23.35;9.98;;;26.60;84.30;;;;;;6214567;23;20000;-73
2023/07/30 01:56:48;;;;;;;22.30;9.75;;;26.70;84.70;;;;;;6214486;23;20008;-74
2023/07/30 01:59:14;;;;;;;19.67;9.30;;;26.70;84.80;;;;;;6214362;23;20007;-74
2023/07/30 02:01:41;;;;;;;18.27;8.32;;;26.70;85.10;;;;;;6214263;23;20020;-73
2023/07/30 02:04:07;;;;;;;16.30;8.60;;;26.60;85.30;;;;;;6212426;23;20019;-73
2023/07/30 02:06:32;;;;;;;15.30;8.00;;;26.60;85.80;;;;;;6214247;23;20084;-73
2023/07/30 02:08:58;;;;;;;16.40;8.57;;;26.60;86.00;;;;;;6214159;23;20004;-72
2023/07/30 02:11:24;;;;;;;20.52;8.65;;;26.50;86.30;;;;;;6214358;23;20387;-72
2023/07/30 02:13:49;;;;;;;18.45;8.25;;;26.50;86.90;;;;;;6214061;23;20036;-72
2023/07/30 02:16:15;;;;;;;14.43;7.53;;;26.50;87.70;;;;;;6214136;23;20008;-74
2023/07/30 02:18:41;;;;;;;18.08;8.13;;;26.50;87.20;;;;;;6214421;23;20059;-73
2023/07/30 02:21:06;;;;;;;15.80;7.50;;;26.50;87.50;;;;;;6214376;23;20001;-73
2023/07/30 02:23:32;;;;;;;17.20;7.65;;;26.50;87.50;;;;;;6214347;23;20075;-73
2023/07/30 02:25:58;;;;;;;18.00;7.22;;;26.50;87.70;;;;;;6213908;23;20020;-73
2023/07/30 02:28:24;;;;;;;16.98;6.82;;;26.40;87.90;;;;;;6214325;23;20482;-72
2023/07/30 02:30:49;;;;;;;13.57;6.85;;;26.40;88.30;;;;;;6214405;23;20025;-73
2023/07/30 02:33:15;;;;;;;18.83;8.07;;;26.40;88.30;;;;;;6213987;23;19996;-73
2023/07/30 02:35:43;;;;;;;15.35;8.57;;;26.30;88.30;;;;;;6214179;23;20012;-72
2023/07/30 02:38:09;;;;;;;13.93;7.45;;;26.30;88.60;;;;;;6213998;23;20095;-72
2023/07/30 02:40:34;;;;;;;18.35;8.27;;;26.30;88.60;;;;;;6218376;23;20000;-74
2023/07/30 02:43:00;;;;;;;15.70;7.72;;;26.30;88.70;;;;;;6215873;23;20036;-72
2023/07/30 02:45:26;;;;;;;16.98;7.90;;;26.30;88.90;;;;;;6212133;23;20174;-73
2023/07/30 02:47:51;;;;;;;14.38;6.70;;;26.30;88.50;;;;;;6213852;23;19996;-72
2023/07/30 02:50:17;;;;;;;20.02;7.75;;;26.30;88.50;;;;;;6214112;23;20073;-73
2023/07/30 02:52:43;;;;;;;20.35;7.55;;;26.30;88.50;;;;;;6214075;23;20395;-73
2023/07/30 02:55:08;;;;;;;16.08;7.97;;;26.30;88.60;;;;;;6213723;23;20079;-73
2023/07/30 02:57:34;;;;;;;16.50;7.80;;;26.30;88.30;;;;;;6214169;23;20005;-73
2023/07/30 03:00:00;;;;;;;15.82;7.10;;;26.30;88.20;;;;;;6214043;23;20001;-72
2023/07/30 03:02:25;;;;;;;15.85;7.03;;;26.30;88.10;;;;;;6213228;23;20070;-72
2023/07/30 03:04:51;;;;;;;16.25;7.53;;;26.30;88.10;;;;;;6212681;23;20335;-73
2023/07/30 03:07:18;;;;;;;14.13;7.43;;;26.30;88.20;;;;;;6212730;23;19996;-72
2023/07/30 03:09:44;;;;;;;15.18;7.28;;;26.30;88.50;;;;;;6212300;23;20021;-73
2023/07/30 03:12:09;;;;;;;16.33;7.55;;;26.30;88.70;;;;;;6212550;23;20080;-73
2023/07/30 03:14:35;;;;;;;17.98;7.85;;;26.20;88.90;;;;;;6210902;23;20012;-72
2023/07/30 03:17:01;;;;;;;20.17;8.25;;;26.30;88.90;;;;;;6212723;23;20066;-72
2023/07/30 03:19:26;;;;;;;14.75;7.30;;;26.30;88.80;;;;;;6212705;23;20465;-73
2023/07/30 03:21:52;;;;;;;13.77;6.78;;;26.20;88.60;;;;;;6213313;23;20135;-73
2023/07/30 03:24:18;;;;;;;16.98;7.13;;;26.20;88.70;;;;;;6214232;23;20112;-72
2023/07/30 03:26:43;;;;;;;15.13;7.63;;;26.30;88.60;;;;;;6213968;23;20000;-72
2023/07/30 03:29:09;;;;;;;17.42;7.78;;;26.30;88.30;;;;;;6213713;23;20080;-74
2023/07/30 03:31:35;;;;;;;15.25;7.68;;;26.30;88.30;;;;;;6213369;23;20051;-73
2023/07/30 03:34:00;;;;;;;17.67;8.35;;;26.30;88.20;;;;;;6213541;23;20072;-73
2023/07/30 03:36:26;;;;;;;16.58;7.25;;;26.30;88.40;;;;;;6213605;23;20012;-73
2023/07/30 03:38:52;;;;;;;16.00;7.80;;;26.30;88.40;;;;;;6213550;23;20441;-72
2023/07/30 03:41:17;;;;;;;12.35;6.30;;;26.30;88.60;;;;;;6213737;23;20005;-73
2023/07/30 03:43:43;;;;;;;16.42;6.93;;;26.30;88.80;;;;;;6213619;23;20034;-73
2023/07/30 03:46:09;;;;;;;15.10;7.45;;;26.30;88.80;;;;;;6213714;23;20004;-73
2023/07/30 03:48:34;;;;;;;15.43;6.25;;;26.30;88.90;;;;;;6213607;23;20000;-73
2023/07/30 03:51:00;;;;;;;15.70;5.68;;;26.20;89.00;;;;;;6213475;23;20013;-73
2023/07/30 03:53:26;;;;;;;13.18;5.93;;;26.20;89.20;;;;;;6213504;23;20384;-73
2023/07/30 03:55:51;;;;;;;11.55;6.22;;;26.10;89.50;;;;;;6213550;23;20527;-73
2023/07/30 03:58:17;;;;;;;14.32;6.03;;;26.10;89.90;;;;;;6213780;23;20080;-73
2023/07/30 04:00:43;;;;;;;18.42;6.95;;;26.10;89.90;;;;;;6213513;23;19996;-73
2023/07/30 04:03:08;;;;;;;11.32;6.53;;;26.00;89.30;;;;;;6150799;23;1481429;-73
2023/07/30 04:05:34;;;;;;;13.48;7.13;;;25.90;88.70;;;;;;6215047;23;20012;-73
2023/07/30 04:08:00;;;;;;;15.38;7.70;;;25.80;88.20;;;;;;6214808;23;19996;-71
2023/07/30 04:10:25;;;;;;;14.48;7.30;;;25.70;87.80;;;;;;6214993;23;20013;-73
2023/07/30 04:12:51;;;;;;;16.40;7.47;;;25.70;87.50;;;;;;6214891;23;20147;-74
2023/07/30 04:15:17;;;;;;;12.30;7.13;;;25.60;87.00;;;;;;6215170;23;20348;-73
2023/07/30 04:17:42;;;;;;;19.88;8.13;;;25.50;87.00;;;;;;6214811;23;20031;-73
2023/07/30 04:20:09;;;;;;;12.50;7.35;;;25.50;86.90;;;;;;6214842;23;20080;-73
2023/07/30 04:22:36;;;;;;;15.05;7.18;;;25.50;86.60;;;;;;6214910;23;20027;-73
2023/07/30 04:25:02;;;;;;;15.95;7.35;;;25.60;86.10;;;;;;6215365;23;20095;-74
2023/07/30 04:27:28;;;;;;;14.50;6.93;;;25.70;85.70;;;;;;6214872;23;20380;-73
2023/07/30 04:29:54;;;;;;;14.10;7.43;;;25.70;85.50;;;;;;6214656;23;20088;-73
2023/07/30 04:32:19;;;;;;;14.07;6.50;;;25.60;85.30;;;;;;6214480;23;19997;-73
2023/07/30 04:34:45;;;;;;;13.52;7.03;;;25.70;85.10;;;;;;6214434;23;20058;-73
2023/07/30 04:37:11;;;;;;;15.75;7.35;;;25.70;85.00;;;;;;6214972;23;20028;-73
2023/07/30 04:39:36;;;;;;;13.07;7.00;;;25.70;85.00;;;;;;6214588;23;20004;-73
2023/07/30 04:42:03;;;;;;;16.70;6.97;;;25.70;85.00;;;;;;6214953;23;20322;-73
2023/07/30 04:44:29;;;;;;;12.63;6.82;;;25.60;84.70;;;;;;6214920;23;20449;-73
2023/07/30 04:46:55;;;;;;;14.43;5.78;;;25.60;84.70;;;;;;6214537;23;19997;-72
2023/07/30 04:49:20;;;;;;;15.57;6.72;;;25.60;84.80;;;;;;6214575;23;20011;-72
2023/07/30 04:51:46;;;;;;;13.55;6.13;;;25.60;84.60;;;;;;6214768;23;20013;-73
2023/07/30 04:54:12;;;;;;;14.27;6.70;;;25.60;84.70;;;;;;6214697;23;20436;-73
2023/07/30 04:56:37;;;;;;;12.73;7.82;;;25.60;84.80;;;;;;6214947;23;20007;-73
2023/07/30 04:59:03;;;;;;;14.23;6.97;;;25.60;84.80;;;;;;6214471;23;20423;-73
2023/07/30 05:01:29;;;;;;;15.52;6.80;;;25.60;84.70;;;;;;6214102;23;20004;-73
2023/07/30 05:03:55;;;;;;;14.95;6.93;;;25.60;84.60;;;;;;6214437;23;20338;-74
2023/07/30 05:06:22;;;;;;;13.60;7.13;;;25.70;84.50;;;;;;6214855;23;20005;-74
2023/07/30 05:08:48;;;;;;;14.52;6.85;;;25.70;84.60;;;;;;6214684;23;20032;-74
2023/07/30 05:11:14;;;;;;;11.43;7.00;;;25.70;84.60;;;;;;6214244;23;20347;-73
2023/07/30 05:13:39;;;;;;;14.55;7.38;;;25.70;85.00;;;;;;6214484;23;20382;-74
2023/07/30 05:16:05;;;;;;;16.77;9.27;;;25.70;84.90;;;;;;6214472;23;20012;-73
2023/07/30 05:18:30;;;;;;;16.33;7.18;;;25.70;84.90;;;;;;6214632;23;20394;-73
2023/07/30 05:20:56;;;;;;;11.57;6.47;;;25.80;85.00;;;;;;6214407;23;20072;-73
2023/07/30 05:23:22;;;;;;;12.20;6.22;;;25.90;84.80;;;;;;6214597;23;19996;-73
2023/07/30 05:25:47;;;;;;;14.10;6.55;;;26.10;84.50;;;;;;6214365;23;20391;-73
2023/07/30 05:28:13;;;;;;;13.55;6.75;;;26.40;83.60;;;;;;6214381;23;20001;-74
2023/07/30 05:30:39;;;;;;;12.40;6.20;;;26.80;82.50;;;;;;6214256;23;20026;-73
2023/07/30 05:33:05;;;;;;;11.80;6.10;;;27.20;81.20;;;;;;6214458;23;19997;-74
2023/07/30 05:35:30;;;;;;;13.45;6.60;;;27.50;79.70;;;;;;6214551;23;20008;-74
2023/07/30 05:37:56;;;;;;;14.15;6.40;;;27.80;78.80;;;;;;6214422;23;20087;-75
2023/07/30 05:40:22;;;;;;;20.45;6.80;;;28.00;78.10;;;;;;6214426;23;20015;-74
2023/07/30 05:42:48;;;;;;;16.15;6.40;;;28.30;77.30;;;;;;6214796;23;19993;-73
2023/07/30 05:45:14;;;;;;;11.25;5.82;;;28.40;77.00;;;;;;6214418;23;20366;-74
2023/07/30 05:47:40;;;;;;;16.35;6.15;;;28.60;76.60;;;;;;6215070;23;20346;-74
2023/07/30 05:50:07;;;;;;;14.35;6.20;;;28.80;76.40;;;;;;6214631;23;20395;-73
2023/07/30 05:52:33;;;;;;;12.77;5.82;;;29.10;75.50;;;;;;6214840;23;20008;-73
2023/07/30 05:54:58;;;;;;;13.02;5.97;;;29.20;75.30;;;;;;6214207;23;20059;-73
2023/07/30 05:57:25;;;;;;;13.82;5.82;;;29.50;74.30;;;;;;6214493;23;20001;-73
2023/07/30 05:59:51;;;;;;;13.35;5.47;;;29.70;74.00;;;;;;6214080;23;20366;-74
2023/07/30 06:02:17;;;;;;;10.90;5.32;;;30.00;73.40;;;;;;6213683;23;20017;-73
2023/07/30 06:04:43;;;;;;;11.30;5.18;;;30.30;73.00;;;;;;6214389;23;20023;-74
2023/07/30 06:07:09;;;;;;;12.23;5.68;;;30.50;72.70;;;;;;6214358;23;20001;-73
2023/07/30 06:09:35;;;;;;;10.82;5.50;;;30.50;72.20;;;;;;6214522;23;20130;-74
2023/07/30 06:12:01;;;;;;;11.88;5.25;;;30.70;72.20;;;;;;6214514;23;20412;-74
2023/07/30 06:14:27;;;;;;;13.60;5.95;;;30.70;71.30;;;;;;6214684;23;20005;-74
2023/07/30 06:16:53;;;;;;;10.60;5.65;;;30.90;71.10;;;;;;6212339;23;20012;-73
2023/07/30 06:19:19;;;;;;;11.25;5.75;;;31.10;70.30;;;;;;6214000;23;20018;-73
2023/07/30 06:21:45;;;;;;;10.50;4.82;;;31.20;69.50;;;;;;6214165;23;20029;-74
2023/07/30 06:24:11;;;;;;;14.75;5.10;;;31.20;69.40;;;;;;6214256;23;19996;-73
2023/07/30 06:26:36;;;;;;;10.38;4.80;;;31.30;68.90;;;;;;6212433;23;20112;-74
2023/07/30 06:29:02;;;;;;;10.70;4.82;;;31.50;68.90;;;;;;6213949;23;20473;-73
2023/07/30 06:31:28;;;;;;;10.38;4.60;;;31.60;68.50;;;;;;6214133;23;20079;-73
2023/07/30 06:33:54;;;;;;;12.13;4.55;;;31.80;68.10;;;;;;6214235;23;20040;-73
2023/07/30 06:36:19;;;;;;;11.75;4.75;;;32.00;67.90;;;;;;6214571;23;20005;-75
2023/07/30 06:38:45;;;;;;;15.07;4.75;;;32.10;67.30;;;;;;6214429;23;20025;-75
2023/07/30 06:41:11;;;;;;;9.52;4.20;;;32.10;67.00;;;;;;6214414;23;20016;-74
2023/07/30 06:43:36;;;;;;;12.90;4.75;;;32.10;66.60;;;;;;6214248;23;20035;-74
2023/07/30 06:46:02;;;;;;;15.52;5.30;;;32.10;66.70;;;;;;6214295;23;20005;-74
2023/07/30 06:48:28;;;;;;;12.50;4.95;;;32.00;66.20;;;;;;6214040;23;20008;-73
2023/07/30 06:50:53;;;;;;;9.07;5.13;;;32.20;65.50;;;;;;6213880;23;20382;-74
2023/07/30 06:53:19;;;;;;;8.07;3.95;;;32.50;65.10;;;;;;6214151;23;20022;-74
2023/07/30 06:55:45;;;;;;;12.40;4.32;;;32.70;64.50;;;;;;6214325;23;20000;-75
2023/07/30 06:58:11;;;;;;;16.35;4.72;;;32.90;63.90;;;;;;6216250;23;20000;-75
2023/07/30 07:00:37;;;;;;;10.52;3.88;;;32.90;63.20;;;;;;6216117;23;20068;-70
2023/07/30 07:03:03;;;;;;;14.88;4.78;;;32.80;63.30;;;;;;6215938;23;20437;-75
2023/07/30 07:05:29;;;;;;;7.63;4.00;;;32.90;63.10;;;;;;6214183;23;20040;-73
2023/07/30 07:07:55;;;;;;;8.68;4.28;;;32.90;62.30;;;;;;6216031;23;20016;-74
2023/07/30 07:10:21;;;;;;;10.48;4.60;;;33.00;61.80;;;;;;6216049;23;20080;-74
2023/07/30 07:12:47;;;;;;;10.90;4.65;;;33.00;61.90;;;;;;6216097;23;20000;-73
2023/07/30 07:15:13;;;;;;;9.40;4.47;;;33.00;61.70;;;;;;6215584;23;20423;-74
2023/07/30 07:17:39;;;;;;;8.20;4.30;;;33.00;61.30;;;;;;6215784;23;19996;-74
2023/07/30 07:20:06;;;;;;;8.85;3.95;;;33.10;60.80;;;;;;6216509;23;20008;-74
2023/07/30 07:22:33;;;;;;;9.10;3.80;;;33.20;60.60;;;;;;6214630;23;20135;-74
2023/07/30 07:24:58;;;;;;;7.68;3.63;;;33.30;60.10;;;;;;6216215;23;20008;-74
2023/07/30 07:27:24;;;;;;;12.63;3.95;;;33.40;59.60;;;;;;6216274;23;20361;-74
2023/07/30 07:29:51;;;;;;;10.90;4.93;;;33.50;59.20;;;;;;6216001;23;20013;-75
2023/07/30 07:32:17;;;;;;;7.32;3.88;;;33.50;58.90;;;;;;6215885;23;20009;-74
2023/07/30 07:34:47;;;;;;;10.95;5.40;;;33.50;58.50;;;;;;6216000;23;20001;-74
2023/07/30 07:37:15;;;;;;;11.07;4.57;;;33.50;58.30;;;;;;6216130;23;20063;-74
2023/07/30 07:39:41;;;;;;;11.65;4.13;;;33.60;58.00;;;;;;6215884;23;20013;-74
2023/07/30 07:42:07;;;;;;;10.13;4.05;;;33.60;58.00;;;;;;6215546;23;20001;-74
2023/07/30 07:44:32;;;;;;;9.23;3.85;;;33.60;57.80;;;;;;6215657;23;20065;-73
2023/07/30 07:46:58;;;;;;;8.27;3.63;;;33.60;57.50;;;;;;6215765;23;20032;-75
2023/07/30 07:49:24;;;;;;;11.48;4.13;;;33.60;57.40;;;;;;6215885;23;20047;-73
2023/07/30 07:51:50;;;;;;;6.88;3.80;;;33.60;57.10;;;;;;6216073;23;20016;-73
2023/07/30 07:54:16;;;;;;;8.85;3.72;;;33.50;56.90;;;;;;6215741;23;20338;-74
2023/07/30 07:56:41;;;;;;;7.13;3.83;;;33.40;56.90;;;;;;6215892;23;20316;-74
2023/07/30 07:59:07;;;;;;;11.15;3.65;;;33.40;56.50;;;;;;6215472;23;20007;-73
2023/07/30 08:01:33;;;;;;;8.32;3.55;;;33.40;56.10;;;;;;6215483;23;20077;-75
2023/07/30 08:03:59;;;;;;;8.13;3.63;;;33.40;55.50;;;;;;6215314;23;20039;-75
2023/07/30 08:06:24;;;;;;;7.25;3.58;;;33.40;55.20;;;;;;6215480;23;20000;-74
2023/07/30 08:08:50;;;;;;;10.95;4.47;;;33.30;55.40;;;;;;6215365;23;20072;-73
2023/07/30 08:11:16;;;;;;;8.05;3.60;;;33.20;55.30;;;;;;6215431;23;20055;-74
2023/07/30 08:13:41;;;;;;;10.38;3.85;;;33.10;55.60;;;;;;6215782;23;20004;-73
2023/07/30 08:16:07;;;;;;;8.85;3.65;;;33.10;55.50;;;;;;6215621;23;20005;-74
2023/07/30 08:18:33;;;;;;;7.90;3.70;;;33.00;55.40;;;;;;6215725;23;20000;-74
2023/07/30 08:21:00;;;;;;;7.78;3.67;;;32.90;55.70;;;;;;6215688;23;20001;-74
2023/07/30 08:23:25;;;;;;;11.35;3.72;;;32.80;55.00;;;;;;6215695;23;20068;-75
2023/07/30 08:25:51;;;;;;;7.35;3.33;;;32.70;54.90;;;;;;6215637;23;20032;-74
2023/07/30 08:28:17;;;;;;;8.45;3.42;;;32.60;54.90;;;;;;6215273;23;20007;-74
2023/07/30 08:30:43;;;;;;;9.45;3.95;;;32.50;55.10;;;;;;6216100;23;20012;-75
2023/07/30 08:33:09;;;;;;;7.95;3.50;;;32.50;55.00;;;;;;6216058;23;20430;-75
2023/07/30 08:35:34;;;;;;;8.32;3.60;;;32.30;54.90;;;;;;6215732;23;20005;-75
2023/07/30 08:38:00;;;;;;;10.98;3.88;;;32.20;55.10;;;;;;6215713;23;20035;-74
2023/07/30 08:40:26;;;;;;;7.47;3.58;;;32.10;55.00;;;;;;6215620;23;20001;-74
2023/07/30 08:42:53;;;;;;;8.80;3.67;;;32.00;55.30;;;;;;6215819;23;20008;-74
2023/07/30 08:45:19;;;;;;;9.23;3.90;;;31.90;55.90;;;;;;6215803;23;20001;-74
2023/07/30 08:47:45;;;;;;;8.40;3.47;;;31.80;55.50;;;;;;6215434;23;20075;-73
2023/07/30 08:50:11;;;;;;;6.38;3.33;;;31.70;55.10;;;;;;6215014;23;20021;-75
2023/07/30 08:52:37;;;;;;;10.32;3.78;;;31.60;54.90;;;;;;6215382;23;20323;-74
2023/07/30 08:55:04;;;;;;;7.63;3.40;;;31.60;54.60;;;;;;6215417;23;20442;-73
2023/07/30 08:57:30;;;;;;;7.13;3.58;;;31.60;54.50;;;;;;6215271;23;19997;-73
2023/07/30 09:00:08;;;;;;;7.70;3.50;;;31.60;54.80;;;;;;6215126;23;20030;-74
2023/07/30 09:02:56;;;;;;;8.25;3.80;;;31.60;53.80;;;;;;6215151;23;20013;-74
2023/07/30 09:05:22;;;;;;;9.60;3.65;;;31.70;54.30;;;;;;6215035;23;20078;-74
2023/07/30 09:07:48;;;;;;;9.02;3.78;;;31.70;54.00;;;;;;6214973;23;20022;-74
2023/07/30 09:10:15;;;;;;;7.95;3.55;;;31.70;53.90;;;;;;6215068;23;20013;-76
2023/07/30 09:12:40;;;;;;;7.30;3.63;;;31.70;53.50;;;;;;6215572;23;20055;-75
2023/07/30 09:15:07;;;;;;;7.35;3.40;;;31.70;53.00;;;;;;6214931;23;20449;-74
2023/07/30 09:17:33;;;;;;;6.75;3.10;;;31.70;52.60;;;;;;6215221;23;20005;-74
2023/07/30 09:20:00;;;;;;;7.43;3.47;;;31.70;52.50;;;;;;6214474;23;20004;-74
2023/07/30 09:22:30;;;;;;;7.78;2.90;;;31.70;52.30;;;;;;6215365;23;19997;-75
2023/07/30 09:24:57;;;;;;;6.15;3.38;;;31.60;51.70;;;;;;6214948;23;20075;-74
2023/07/30 09:27:26;;;;;;;7.10;2.70;;;31.60;51.70;;;;;;6215384;23;20022;-75
2023/07/30 09:30:05;;;;;;;8.52;2.80;;;31.70;51.60;;;;;;6215023;23;20323;-75
2023/07/30 09:32:35;;;;;;;5.57;2.65;;;31.70;51.10;;;;;;6214913;23;20000;-76
2023/07/30 09:35:06;;;;;;;5.88;2.50;;;31.70;50.30;;;;;;6215162;23;20009;-74
2023/07/30 09:37:37;;;;;;;5.05;2.58;;;31.70;50.30;;;;;;6215439;23;20059;-75
2023/07/30 09:40:03;;;;;;;4.70;2.45;;;31.70;50.40;;;;;;6215120;23;20084;-73
2023/07/30 09:42:29;;;;;;;6.75;2.72;;;31.80;50.20;;;;;;6214970;23;19997;-75
2023/07/30 09:44:59;;;;;;;8.93;2.85;;;31.80;50.30;;;;;;6214489;23;20008;-75
2023/07/30 09:47:26;;;;;;;8.85;2.92;;;31.90;50.10;;;;;;6215002;23;20330;-75
2023/07/30 09:49:53;;;;;;;5.20;2.80;;;31.90;50.30;;;;;;6214865;23;20032;-75
2023/07/30 09:52:20;;;;;;;10.93;3.45;;;31.90;50.10;;;;;;6215069;23;20379;-75
2023/07/30 09:54:47;;;;;;;8.15;3.10;;;31.90;50.40;;;;;;6214677;23;20078;-75
2023/07/30 09:57:12;;;;;;;7.80;2.72;;;32.00;50.70;;;;;;6214534;23;20028;-75
2023/07/30 09:59:38;;;;;;;6.18;2.80;;;32.10;50.90;;;;;;6214854;23;20419;-75
2023/07/30 10:02:06;;;;;;;5.93;2.90;;;32.10;50.90;;;;;;6214463;23;20020;-74
2023/07/30 10:04:33;;;;;;;5.35;2.92;;;32.20;50.50;;;;;;6214726;23;20024;-74
2023/07/30 10:07:03;;;;;;;7.07;2.95;;;32.30;50.40;;;;;;6214095;23;20004;-75
2023/07/30 10:09:34;;;;;;;6.88;2.70;;;32.20;50.30;;;;;;6214469;23;20385;-74
2023/07/30 10:12:01;;;;;;;7.85;2.90;;;32.20;50.60;;;;;;6214356;23;20003;-75
2023/07/30 10:14:28;;;;;;;8.07;2.50;;;32.40;50.60;;;;;;6214566;23;20016;-74
2023/07/30 10:16:59;;;;;;;8.38;3.00;;;32.40;50.70;;;;;;6214212;23;20000;-75
2023/07/30 10:19:29;;;;;;;8.07;2.95;;;32.40;50.50;;;;;;6214714;23;20085;-74
2023/07/30 10:22:15;;;;;;;6.72;2.90;;;32.40;50.70;;;;;;6212523;23;20088;-74
2023/07/30 10:24:54;;;;;;;6.75;2.78;;;32.40;50.70;;;;;;6214442;23;20075;-75
2023/07/30 10:27:24;;;;;;;6.20;2.50;;;32.50;51.00;;;;;;6212746;23;20019;-75
2023/07/30 10:30:12;;;;;;;6.88;3.15;;;32.50;51.20;;;;;;6214329;23;20008;-74
2023/07/30 10:32:51;;;;;;;8.80;2.60;;;32.50;50.20;;;;;;6214414;23;20027;-74
2023/07/30 10:35:37;;;;;;;5.88;3.08;;;32.50;51.30;;;;;;6214304;23;20083;-73
2023/07/30 10:38:20;;;;;;;7.68;3.22;;;32.40;51.40;;;;;;6214342;23;20001;-74
2023/07/30 10:41:06;;;;;;;5.90;2.72;;;32.40;51.40;;;;;;6214330;23;20023;-74
2023/07/30 10:43:36;;;;;;;5.03;2.58;;;32.40;51.80;;;;;;6214520;23;20016;-73
2023/07/30 10:46:03;;;;;;;7.22;2.60;;;32.40;52.30;;;;;;6213979;23;20005;-74
2023/07/30 10:48:42;;;;;;;12.55;2.88;;;32.40;52.90;;;;;;6212237;23;20339;-74
2023/07/30 10:51:16;;;;;;;6.78;2.70;;;32.40;52.40;;;;;;6213813;23;20040;-75
2023/07/30 10:53:43;;;;;;;8.57;3.05;;;32.50;53.40;;;;;;6212333;23;20012;-74
2023/07/30 10:56:10;;;;;;;7.50;3.05;;;32.50;53.10;;;;;;6213619;23;20001;-74
2023/07/30 10:58:36;;;;;;;7.95;3.22;;;32.50;52.80;;;;;;6214035;23;20001;-74
2023/07/30 11:01:07;;;;;;;6.82;2.80;;;32.50;53.50;;;;;;6213904;23;20011;-67
2023/07/30 11:03:33;;;;;;;7.40;2.95;;;32.50;52.90;;;;;;6213502;23;20021;-74
2023/07/30 11:06:00;;;;;;;5.90;2.42;;;32.60;54.20;;;;;;6214276;23;20009;-73
2023/07/30 11:08:38;;;;;;;8.80;3.28;;;32.60;54.50;;;;;;6214353;23;20071;-76
2023/07/30 11:11:05;;;;;;;15.27;3.13;;;32.70;54.50;;;;;;6214046;23;20319;-74
2023/07/30 11:13:39;;;;;;;6.22;2.67;;;32.70;54.90;;;;;;6214470;23;20017;-74
2023/07/30 11:16:09;;;;;;;7.35;2.97;;;32.70;54.10;;;;;;6213875;23;20034;-75
2023/07/30 11:18:35;;;;;;;7.47;2.92;;;32.70;55.40;;;;;;6214425;23;20319;-74
2023/07/30 11:21:09;;;;;;;11.18;3.30;;;32.70;55.60;;;;;;6213660;23;20111;-75
2023/07/30 11:23:36;;;;;;;5.93;2.58;;;32.80;55.90;;;;;;6214213;23;20120;-75
2023/07/30 11:26:04;;;;;;;7.35;2.63;;;32.90;56.20;;;;;;6214630;23;20007;-75
2023/07/30 11:28:34;;;;;;;5.95;2.75;;;32.90;56.10;;;;;;6214551;23;20331;-74
2023/07/30 11:31:02;;;;;;;9.25;3.80;;;33.00;56.20;;;;;;6213921;23;20079;-73
2023/07/30 11:33:28;;;;;;;7.45;3.92;;;33.00;56.20;;;;;;6214078;23;20036;-73
2023/07/30 11:35:56;;;;;;;7.93;3.45;;;33.00;55.90;;;;;;6213975;23;20080;-74
2023/07/30 11:38:24;;;;;;;7.70;2.60;;;33.00;55.90;;;;;;6214371;23;20015;-75
2023/07/30 11:40:51;;;;;;;8.82;3.22;;;33.00;55.90;;;;;;6214197;23;20008;-74
2023/07/30 11:43:17;;;;;;;8.75;2.97;;;33.10;55.80;;;;;;6215444;23;20305;-75
2023/07/30 11:45:43;;;;;;;7.50;2.40;;;33.20;55.50;;;;;;6215710;23;20007;-74
2023/07/30 11:48:10;;;;;;;6.93;2.85;;;33.20;55.40;;;;;;6216313;23;20084;-74
2023/07/30 11:51:03;;;;;;;7.50;2.40;;;33.40;55.40;;;;;;6215968;23;20012;-75
2023/07/30 11:53:49;;;;;;;7.15;3.15;;;33.40;54.90;;;;;;6210657;23;20008;-75
2023/07/30 11:56:29;;;;;;;8.40;2.90;;;33.40;54.20;;;;;;6216015;23;20021;-74
2023/07/30 11:58:58;;;;;;;8.18;3.00;;;33.30;55.20;;;;;;6215740;23;20342;-75
2023/07/30 12:01:26;;;;;;;9.07;2.83;;;33.20;55.40;;;;;;6215793;23;20000;-74
2023/07/30 12:03:56;;;;;;;7.85;2.70;;;33.20;55.60;;;;;;6215552;23;20020;-74
2023/07/30 12:06:22;;;;;;;7.93;2.70;;;33.20;55.90;;;;;;6216068;23;20032;-75
2023/07/30 12:08:51;;;;;;;6.75;2.80;;;33.30;56.00;;;;;;6216175;23;20005;-74
2023/07/30 12:11:21;;;;;;;20.55;12.75;;;33.30;56.10;;;;;;6215559;23;20457;-74
2023/07/30 12:13:47;;;;;;;8.57;4.32;;;33.30;56.20;;;;;;6216081;23;20103;-74
2023/07/30 12:16:14;;;;;;;8.75;3.15;;;33.30;56.30;;;;;;6218556;23;20423;-74
2023/07/30 12:18:40;;;;;;;9.52;2.80;;;33.40;56.50;;;;;;6215923;23;20093;-74
2023/07/30 12:21:11;;;;;;;5.88;2.92;;;33.30;56.60;;;;;;6215366;23;20437;-73
2023/07/30 12:23:38;;;;;;;5.50;2.45;;;33.30;56.00;;;;;;6215755;23;20012;-72
2023/07/30 12:26:04;;;;;;;7.75;2.60;;;33.30;57.00;;;;;;6215631;23;20012;-74
2023/07/30 12:28:32;;;;;;;7.45;2.80;;;33.40;56.70;;;;;;6215289;23;20012;-75
2023/07/30 12:30:58;;;;;;;5.22;2.47;;;33.40;56.80;;;;;;6215781;23;20217;-75
2023/07/30 12:33:24;;;;;;;6.70;3.13;;;33.40;56.60;;;;;;6215962;23;20000;-73
2023/07/30 12:35:50;;;;;;;5.10;2.80;;;33.50;56.80;;;;;;6215698;23;20087;-73
2023/07/30 12:38:15;;;;;;;6.75;2.75;;;33.50;56.50;;;;;;6215941;23;20009;-75
2023/07/30 12:40:41;;;;;;;8.43;2.75;;;33.50;56.30;;;;;;6215332;23;20000;-74